Time;durP1;ratioP1;P1;durP2;ratioP2;P2;SDS_P1;SDS_P2;PMS_P1;PMS_P2;Temp;Humidity;BMP_temperature;BMP_pressure;BME280_temperature;BME280_humidity;BME280_pressure;Samples;Min_cycle;Max_cycle;Signal;HPM_P1;HPM_P2
2021/03/24 00:00:37;;;;;;;15.98;8.85;;;;;;;8.46;54.62;100655.38;4975874;28;20051;-77
2021/03/24 00:03:03;;;;;;;24.55;11.85;;;;;;;8.46;54.54;100652.78;4974952;28;20078;-77
2021/03/24 00:05:33;;;;;;;29.60;12.90;;;;;;;8.44;54.64;100657.19;4971773;28;20073;-77
2021/03/24 00:08:00;;;;;;;21.98;10.38;;;;;;;8.43;54.66;100658.09;4974362;28;20142;-76
2021/03/24 00:10:28;;;;;;;23.08;11.13;;;;;;;8.41;54.76;100650.28;4975510;28;20053;-77
2021/03/24 00:12:57;;;;;;;20.98;9.77;;;;;;;8.42;54.73;100653.75;4973190;28;20055;-77
2021/03/24 00:15:24;;;;;;;12.13;7.93;;;;;;;8.38;54.91;100659.94;4973030;28;20198;-76
2021/03/24 00:17:51;;;;;;;25.15;12.93;;;;;;;8.35;54.72;100666.09;4971987;28;20065;-76
2021/03/24 00:20:20;;;;;;;15.40;7.53;;;;;;;8.32;54.85;100660.03;4975312;28;20070;-76
2021/03/24 00:22:46;;;;;;;13.65;7.53;;;;;;;8.32;54.89;100662.66;4977550;28;20579;-76
2021/03/24 00:25:15;;;;;;;12.65;6.60;;;;;;;8.25;55.00;100662.78;4972992;28;20054;-77
2021/03/24 00:27:42;;;;;;;15.02;7.05;;;;;;;8.23;55.02;100661.09;4975622;28;20061;-78
2021/03/24 00:30:11;;;;;;;12.88;7.00;;;;;;;8.16;55.02;100667.38;4971850;28;20050;-77
2021/03/24 00:32:37;;;;;;;11.38;6.60;;;;;;;8.15;54.94;100668.25;4974509;28;20141;-77
2021/03/24 00:35:05;;;;;;;12.93;7.25;;;;;;;8.13;55.12;100665.69;4971130;28;20271;-77
2021/03/24 00:37:31;;;;;;;13.77;7.28;;;;;;;8.15;55.30;100670.88;4971997;28;20792;-77
2021/03/24 00:39:57;;;;;;;16.65;7.28;;;;;;;8.18;54.99;100674.28;4973252;28;20137;-78
2021/03/24 00:42:23;;;;;;;15.82;7.80;;;;;;;8.19;54.90;100670.75;4973870;28;20586;-76
2021/03/24 00:44:49;;;;;;;13.02;8.05;;;;;;;8.23;54.99;100667.19;4970812;28;20086;-78
2021/03/24 00:47:16;;;;;;;13.10;7.28;;;;;;;8.23;54.94;100664.56;4973413;28;20145;-77
2021/03/24 00:49:42;;;;;;;13.15;7.60;;;;;;;8.22;55.20;100662.88;4974214;28;20154;-77
2021/03/24 00:52:08;;;;;;;11.75;7.43;;;;;;;8.22;55.03;100664.63;4973355;28;20170;-77
2021/03/24 00:54:35;;;;;;;11.35;6.93;;;;;;;8.24;55.12;100666.28;4972983;28;20047;-77
2021/03/24 00:57:01;;;;;;;11.98;7.40;;;;;;;8.24;55.16;100668.91;4972832;28;20055;-78
2021/03/24 00:59:27;;;;;;;15.27;7.70;;;;;;;8.27;54.93;100676.66;4971347;28;20145;-76
2021/03/24 01:01:53;;;;;;;16.50;7.35;;;;;;;8.27;55.01;100668.84;4973768;28;20137;-77
2021/03/24 01:04:20;;;;;;;10.20;6.50;;;;;;;8.29;55.00;100675.78;4971595;28;20138;-76
2021/03/24 01:06:46;;;;;;;12.40;7.32;;;;;;;8.27;55.26;100673.19;4970706;28;20089;-78
2021/03/24 01:09:13;;;;;;;12.65;7.88;;;;;;;8.31;54.99;100673.97;4970139;28;20085;-77
2021/03/24 01:11:40;;;;;;;21.55;8.80;;;;;;;8.33;55.04;100680.91;4970941;28;20051;-76
2021/03/24 01:14:09;;;;;;;15.07;7.15;;;;;;;8.33;55.19;100687.88;4971732;28;20145;-74
2021/03/24 01:16:36;;;;;;;12.50;7.55;;;;;;;8.36;54.99;100686.09;4972688;28;20146;-75
2021/03/24 01:19:03;;;;;;;13.95;8.05;;;;;;;8.36;55.11;100685.25;4971650;28;20066;-76
2021/03/24 01:21:30;;;;;;;16.67;8.05;;;;;;;8.39;55.09;100685.19;4969167;28;20054;-75
2021/03/24 01:23:56;;;;;;;16.58;9.50;;;;;;;8.39;54.86;100682.56;4970196;28;20526;-75
2021/03/24 01:26:23;;;;;;;16.13;8.40;;;;;;;8.37;55.09;100676.50;4965056;28;20448;-78
2021/03/24 01:28:58;;;;;;;16.65;8.10;;;;;;;8.37;55.14;100677.38;4969968;28;20055;-75
2021/03/24 01:31:26;;;;;;;12.77;7.68;;;;;;;8.39;55.02;100682.56;4964770;28;20500;-75
2021/03/24 01:33:52;;;;;;;19.67;9.05;;;;;;;8.37;55.09;100681.75;4969283;28;20471;-78
2021/03/24 01:36:18;;;;;;;17.45;8.40;;;;;;;8.34;55.16;100681.81;4969110;28;20086;-77
2021/03/24 01:38:45;;;;;;;15.73;8.15;;;;;;;8.34;55.20;100679.19;4971433;28;20047;-77
2021/03/24 01:41:11;;;;;;;16.02;9.40;;;;;;;8.34;55.05;100680.06;4972266;28;20054;-77
2021/03/24 01:43:38;;;;;;;15.65;9.90;;;;;;;8.33;55.45;100685.25;4974456;28;20080;-77
2021/03/24 01:46:36;;;;;;;16.75;8.93;;;;;;;8.32;55.34;100680.94;4970211;28;20142;-76
2021/03/24 01:49:08;;;;;;;16.88;9.63;;;;;;;8.37;55.09;100679.13;4970775;28;20062;-76
2021/03/24 01:51:37;;;;;;;16.17;8.48;;;;;;;8.34;55.19;100685.28;4971255;28;20417;-77
2021/03/24 01:54:08;;;;;;;14.10;7.45;;;;;;;8.31;55.17;100679.22;4968399;28;20054;-76
2021/03/24 01:56:36;;;;;;;15.93;9.13;;;;;;;8.32;55.34;100676.56;4965914;28;20067;-76
2021/03/24 01:59:02;;;;;;;17.15;8.68;;;;;;;8.32;55.48;100678.31;4967451;28;20201;-76
2021/03/24 02:01:28;;;;;;;18.35;8.93;;;;;;;8.31;55.32;100684.44;4973248;28;20062;-75
2021/03/24 02:03:55;;;;;;;14.98;9.27;;;;;;;8.32;55.40;100686.16;4969397;28;20158;-75
2021/03/24 02:06:26;;;;;;;17.90;9.02;;;;;;;8.29;55.38;100681.00;4970101;28;20124;-76
2021/03/24 02:09:01;;;;;;;13.98;8.98;;;;;;;8.35;55.53;100686.16;4971438;28;20059;-76
2021/03/24 02:11:33;;;;;;;19.50;9.00;;;;;;;8.36;55.46;100693.09;4968856;28;20435;-75
2021/03/24 02:14:05;;;;;;;17.92;8.45;;;;;;;8.39;55.25;100687.78;4972576;28;20064;-75
2021/03/24 02:16:37;;;;;;;15.45;8.93;;;;;;;8.38;55.37;100686.94;4972165;28;20051;-75
2021/03/24 02:19:12;;;;;;;16.10;8.90;;;;;;;8.39;55.17;100693.88;4971379;28;20145;-76
2021/03/24 02:21:41;;;;;;;17.27;9.05;;;;;;;8.41;55.61;100691.22;4969136;28;20077;-74
2021/03/24 02:24:18;;;;;;;22.25;9.82;;;;;;;8.35;55.33;100687.00;4969151;28;20082;-75
2021/03/24 02:26:52;;;;;;;15.90;8.90;;;;;;;8.35;55.33;100688.75;4970778;28;20069;-75
2021/03/24 02:29:22;;;;;;;21.20;9.20;;;;;;;8.36;55.45;100691.34;4972498;28;20106;-72
2021/03/24 02:31:50;;;;;;;14.70;8.30;;;;;;;8.35;55.50;100696.59;4967731;28;20065;-73
2021/03/24 02:34:20;;;;;;;18.63;10.23;;;;;;;8.30;55.57;100687.94;4966583;28;20078;-74
2021/03/24 02:36:48;;;;;;;17.80;9.60;;;;;;;8.31;55.47;100694.88;4971385;28;20138;-75
2021/03/24 02:39:17;;;;;;;16.83;9.38;;;;;;;8.29;55.67;100687.09;4971774;28;20754;-75
2021/03/24 02:41:44;;;;;;;16.70;9.07;;;;;;;8.27;55.69;100697.56;4972895;28;20135;-75
2021/03/24 02:44:12;;;;;;;19.67;10.75;;;;;;;8.27;55.52;100699.31;4976541;28;20105;-76
2021/03/24 02:46:40;;;;;;;19.58;11.35;;;;;;;8.26;55.62;100698.47;4969998;28;20162;-75
2021/03/24 02:49:07;;;;;;;18.55;10.07;;;;;;;8.29;55.61;100687.09;4968695;28;20149;-76
2021/03/24 02:51:33;;;;;;;21.42;11.73;;;;;;;8.31;55.69;100694.88;4971331;28;20082;-77
2021/03/24 02:54:00;;;;;;;21.35;10.60;;;;;;;8.29;55.86;100697.53;4971835;28;20046;-75
2021/03/24 02:56:27;;;;;;;22.58;9.75;;;;;;;8.30;55.78;100703.63;4969921;28;20046;-77
2021/03/24 02:58:53;;;;;;;17.60;10.80;;;;;;;8.30;55.83;100701.00;4970632;28;20413;-76
2021/03/24 03:01:23;;;;;;;23.15;10.85;;;;;;;8.29;55.70;100692.31;4971871;28;20077;-76
2021/03/24 03:03:55;;;;;;;18.92;10.13;;;;;;;8.27;55.84;100699.31;4953140;28;20184;-76
2021/03/24 03:06:27;;;;;;;20.83;10.50;;;;;;;8.26;55.94;100693.25;4964109;28;20085;-76
2021/03/24 03:08:55;;;;;;;;;;;;;;;8.39;55.39;100703.47;4970166;28;20067;-76
2021/03/24 03:11:28;;;;;;;15.00;8.63;;;;;;;8.24;55.71;100702.88;4972226;28;19973;-76
2021/03/24 03:13:58;;;;;;;16.88;9.20;;;;;;;8.21;56.02;100695.09;4972078;28;20050;-75
2021/03/24 03:16:30;;;;;;;20.60;10.02;;;;;;;8.24;55.75;100705.47;4971252;28;20142;-75
2021/03/24 03:19:04;;;;;;;17.63;9.25;;;;;;;8.26;55.84;100706.28;4974071;28;20319;-76
2021/03/24 03:21:34;;;;;;;19.10;9.98;;;;;;;8.28;55.67;100708.88;4966686;28;20061;-76
2021/03/24 03:24:04;;;;;;;18.55;8.77;;;;;;;8.23;56.04;100708.13;4971078;28;20050;-75
2021/03/24 03:26:32;;;;;;;18.35;8.73;;;;;;;8.21;55.99;100707.28;4970473;28;20057;-77
2021/03/24 03:29:08;;;;;;;16.75;8.88;;;;;;;8.16;56.27;100706.53;4972235;28;20121;-77
2021/03/24 03:31:38;;;;;;;16.80;9.77;;;;;;;8.18;56.04;100708.22;4972336;28;20051;-78
2021/03/24 03:34:08;;;;;;;20.05;10.20;;;;;;;8.17;56.09;100709.13;4969869;28;20402;-78
2021/03/24 03:36:36;;;;;;;22.17;9.75;;;;;;;8.17;56.16;100703.03;4972532;28;20593;-78
2021/03/24 03:39:09;;;;;;;21.77;9.32;;;;;;;8.14;56.14;100709.19;4970568;28;20155;-77
2021/03/24 03:41:37;;;;;;;20.05;9.40;;;;;;;8.18;56.22;100707.38;4970580;28;20142;-76
2021/03/24 03:44:06;;;;;;;20.02;9.10;;;;;;;8.15;56.28;100705.69;4969582;28;20158;-77
2021/03/24 03:46:36;;;;;;;21.13;9.40;;;;;;;8.14;56.21;100714.41;4971009;28;20133;-77
2021/03/24 03:49:03;;;;;;;19.33;9.25;;;;;;;8.10;56.21;100711.88;4969711;28;20083;-77
2021/03/24 03:51:41;;;;;;;17.88;9.43;;;;;;;8.04;56.53;100706.78;4969714;28;20231;-77
2021/03/24 03:54:13;;;;;;;16.80;9.10;;;;;;;8.03;56.67;100710.28;4968851;28;20518;-75
2021/03/24 03:56:46;;;;;;;18.98;9.73;;;;;;;8.02;56.56;100706.81;4970304;28;20431;-75
2021/03/24 03:59:15;;;;;;;14.02;9.05;;;;;;;8.03;56.59;100705.94;4971101;28;20075;-75
2021/03/24 04:01:47;;;;;;;14.50;9.05;;;;;;;8.01;56.53;100706.84;4969282;28;20134;-76
2021/03/24 04:04:20;;;;;;;16.40;9.25;;;;;;;7.99;56.65;100703.41;4969922;28;20150;-76
2021/03/24 04:06:53;;;;;;;15.77;8.98;;;;;;;7.98;56.70;100715.63;4969575;28;20550;-76
2021/03/24 04:09:23;;;;;;;17.13;8.70;;;;;;;7.97;56.76;100715.66;4972342;28;20499;-75
2021/03/24 04:11:52;;;;;;;16.65;8.85;;;;;;;7.95;56.82;100711.31;4972534;28;20049;-74
2021/03/24 04:14:22;;;;;;;17.52;9.07;;;;;;;7.99;56.87;100717.34;4972912;28;20057;-74
2021/03/24 04:16:50;;;;;;;18.15;10.40;;;;;;;8.04;56.50;100707.66;4972811;28;20470;-77
2021/03/24 04:19:20;;;;;;;15.70;8.88;;;;;;;8.05;56.71;100709.38;4971472;28;20063;-77
2021/03/24 04:21:52;;;;;;;15.50;9.18;;;;;;;8.06;56.66;100712.84;4973164;28;20133;-76
2021/03/24 04:24:23;;;;;;;17.02;9.95;;;;;;;8.08;56.70;100714.53;4968504;28;20094;-76
2021/03/24 04:26:51;;;;;;;;;;;;;;;8.23;56.11;100713.34;4968742;28;20060;-75
2021/03/24 04:29:21;;;;;;;16.10;9.32;;;;;;;8.09;56.29;100711.00;4972246;28;19929;-76
2021/03/24 04:31:51;;;;;;;15.52;9.30;;;;;;;8.05;56.67;100709.38;4975157;28;20042;-75
2021/03/24 04:34:18;;;;;;;16.60;9.15;;;;;;;8.03;56.62;100718.13;4964835;28;20146;-76
2021/03/24 04:36:49;;;;;;;19.45;10.18;;;;;;;8.01;56.77;100722.53;4975451;28;20511;-77
2021/03/24 04:39:23;;;;;;;17.25;10.07;;;;;;;8.01;56.76;100722.53;4975079;28;20055;-77
2021/03/24 04:41:50;;;;;;;28.73;13.75;;;;;;;8.00;56.96;100726.03;4974670;28;20479;-75
2021/03/24 04:44:21;;;;;;;21.85;12.30;;;;;;;7.99;57.23;100729.53;4971946;28;20051;-73
2021/03/24 04:46:51;;;;;;;22.58;12.55;;;;;;;8.02;56.71;100727.72;4972617;28;20403;-73
2021/03/24 04:49:22;;;;;;;20.55;10.32;;;;;;;8.02;57.06;100730.31;4974570;28;20047;-74
2021/03/24 04:51:51;;;;;;;22.15;11.25;;;;;;;8.08;56.87;100740.63;4971271;28;20038;-76
2021/03/24 04:54:21;;;;;;;20.50;11.13;;;;;;;8.09;56.84;100742.34;4972839;28;20137;-77
2021/03/24 04:56:51;;;;;;;22.65;12.13;;;;;;;8.10;56.56;100741.47;4972686;28;20051;-76
2021/03/24 04:59:20;;;;;;;23.23;12.82;;;;;;;8.12;56.70;100742.31;4972433;28;20077;-77
2021/03/24 05:01:51;;;;;;;23.60;12.18;;;;;;;8.16;56.71;100743.09;4974772;28;20181;-77
2021/03/24 05:04:24;;;;;;;20.75;11.43;;;;;;;8.22;56.67;100735.13;4974543;28;20051;-76
2021/03/24 05:06:56;;;;;;;24.80;11.88;;;;;;;8.20;56.66;100739.53;4974501;28;20117;-76
2021/03/24 05:09:23;;;;;;;24.50;12.43;;;;;;;8.22;56.58;100737.75;4970026;28;20539;-76
2021/03/24 05:12:04;;;;;;;23.38;11.98;;;;;;;8.21;56.53;100739.50;4971608;28;21432;-75
2021/03/24 05:14:36;;;;;;;23.33;11.75;;;;;;;8.23;56.30;100734.25;4969726;28;20137;-76
2021/03/24 05:17:16;;;;;;;20.38;10.93;;;;;;;8.21;56.49;100736.88;4973765;28;20444;-76
2021/03/24 05:19:44;;;;;;;20.38;12.07;;;;;;;8.30;56.30;100740.19;4975566;28;20586;-75
2021/03/24 05:22:20;;;;;;;25.33;12.60;;;;;;;8.29;56.48;100735.84;4974761;28;20093;-74
2021/03/24 05:24:48;;;;;;;24.10;13.02;;;;;;;8.33;56.25;100735.78;4892376;28;20122;-75
2021/03/24 05:27:18;;;;;;;28.98;12.70;;;;;;;8.38;56.35;100735.72;4976678;28;20078;-74
2021/03/24 05:29:49;;;;;;;32.38;14.55;;;;;;;8.43;56.09;100742.53;4972321;28;20039;-76
2021/03/24 05:32:19;;;;;;;29.52;13.00;;;;;;;8.46;56.13;100750.31;4969782;28;20039;-75
2021/03/24 05:34:49;;;;;;;22.55;12.20;;;;;;;8.49;56.04;100747.63;4970199;28;20051;-74
2021/03/24 05:37:18;;;;;;;29.95;14.73;;;;;;;8.52;56.10;100754.53;4970127;28;20050;-75
2021/03/24 05:39:45;;;;;;;43.75;20.52;;;;;;;8.57;55.82;100750.09;4972283;28;20081;-76
2021/03/24 05:42:33;;;;;;;29.20;15.57;;;;;;;8.61;55.93;100762.19;4968698;28;20047;-75
2021/03/24 05:45:19;;;;;;;44.90;19.90;;;;;;;8.62;55.77;100758.69;4970593;28;20061;-74
2021/03/24 05:48:05;;;;;;;26.40;15.48;;;;;;;8.59;55.84;100763.97;4968616;28;20585;-74
2021/03/24 05:51:03;;;;;;;27.67;15.25;;;;;;;8.63;55.83;100765.63;4971580;28;20587;-75
2021/03/24 05:53:41;;;;;;;22.17;12.63;;;;;;;8.72;55.49;100764.56;4971097;28;20050;-71
2021/03/24 05:56:12;;;;;;;21.40;12.75;;;;;;;8.75;55.54;100767.13;4971869;28;20047;-73
2021/03/24 05:58:48;;;;;;;23.90;13.88;;;;;;;8.70;55.54;100766.34;4973754;28;20150;-74
2021/03/24 06:01:20;;;;;;;22.08;13.35;;;;;;;8.64;55.86;100764.72;4966146;28;20039;-72
2021/03/24 06:03:58;;;;;;;24.35;12.38;;;;;;;8.59;56.07;100771.81;4961876;28;20503;-74
2021/03/24 06:07:09;;;;;;;28.73;13.70;;;;;;;8.54;56.21;100779.78;4965612;28;20042;-74
2021/03/24 06:09:50;;;;;;;32.20;13.38;;;;;;;8.41;56.59;100769.59;4969281;28;20180;-73
2021/03/24 06:12:46;;;;;;;36.30;18.83;;;;;;;8.30;57.35;100776.75;4978233;28;20506;-73
2021/03/24 06:15:50;;;;;;;22.60;13.30;;;;;;;8.37;57.05;100774.03;4994351;28;20050;-74
2021/03/24 06:18:50;;;;;;;28.63;15.70;;;;;;;8.49;56.99;100768.53;4974442;28;20064;-76
2021/03/24 06:21:27;;;;;;;30.25;14.65;;;;;;;8.51;56.92;100769.34;4935931;28;20070;-73
2021/03/24 06:24:05;;;;;;;27.65;16.58;;;;;;;8.63;56.95;100768.25;4962413;28;20133;-72
2021/03/24 06:26:46;;;;;;;27.90;16.00;;;;;;;8.74;56.88;100768.84;4965101;28;20693;-73
2021/03/24 06:29:25;;;;;;;25.50;12.20;;;;;;;8.79;56.52;100772.25;4960543;28;20065;-73
2021/03/24 06:32:27;;;;;;;25.52;14.07;;;;;;;8.81;56.62;100774.81;4963381;28;20054;-76
2021/03/24 06:35:27;;;;;;;29.67;16.27;;;;;;;8.83;56.55;100778.25;4968431;28;20074;-73
2021/03/24 06:38:15;;;;;;;28.13;15.25;;;;;;;8.88;56.61;100786.00;4968892;28;20121;-73
2021/03/24 06:40:57;;;;;;;27.55;13.60;;;;;;;8.89;56.65;100783.34;4970475;28;20130;-74
2021/03/24 06:43:41;;;;;;;29.40;14.80;;;;;;;9.00;56.52;100790.94;4968824;28;20113;-72
2021/03/24 06:46:22;;;;;;;33.05;16.77;;;;;;;9.14;56.20;100788.84;4970491;28;20178;-75
2021/03/24 06:49:09;;;;;;;28.40;15.23;;;;;;;9.26;55.94;100793.78;4970582;28;20078;-75
2021/03/24 06:52:08;;;;;;;44.78;21.23;;;;;;;9.46;55.70;100795.94;4965065;28;20443;-76
2021/03/24 06:55:29;;;;;;;23.92;13.65;;;;;;;9.66;55.21;100798.03;4961105;28;20050;-74
2021/03/24 06:58:16;;;;;;;29.70;15.50;;;;;;;9.86;54.90;100801.00;4930244;29;20059;-74
2021/03/24 07:01:02;;;;;;;23.90;13.80;;;;;;;9.91;54.69;100806.09;4925374;29;20138;-74
2021/03/24 07:04:01;;;;;;;22.42;12.63;;;;;;;10.03;54.52;100804.03;4960763;28;20053;-73
2021/03/24 07:06:43;;;;;;;34.45;15.45;;;;;;;10.23;54.11;100810.50;4963870;28;20057;-74
2021/03/24 07:09:18;;;;;;;55.10;23.92;;;;;;;10.45;53.45;100816.88;4966215;28;20109;-74
2021/03/24 07:11:56;;;;;;;25.73;14.32;;;;;;;10.44;53.52;100820.38;4972584;28;20055;-74
2021/03/24 07:14:44;;;;;;;21.27;13.43;;;;;;;10.50;53.37;100816.72;4967795;28;20144;-75
2021/03/24 07:17:32;;;;;;;25.33;13.98;;;;;;;10.61;53.14;100819.88;4968865;28;20093;-76
2021/03/24 07:20:32;;;;;;;30.73;15.65;;;;;;;10.79;52.90;100821.94;4970324;28;20090;-77
2021/03/24 07:23:13;;;;;;;25.92;14.25;;;;;;;10.93;52.45;100824.16;4973016;28;20062;-75
2021/03/24 07:25:43;;;;;;;24.48;14.95;;;;;;;10.98;52.25;100827.50;4967237;28;20130;-76
2021/03/24 07:28:41;;;;;;;24.55;14.93;;;;;;;11.05;52.19;100831.69;4970275;28;20054;-75
2021/03/24 07:31:27;;;;;;;27.40;15.07;;;;;;;11.08;52.17;100826.31;4966077;28;20047;-75
2021/03/24 07:34:03;;;;;;;23.48;12.88;;;;;;;11.06;51.85;100825.53;4968399;28;20059;-75
2021/03/24 07:36:44;;;;;;;24.90;15.57;;;;;;;11.08;51.76;100828.94;4971274;28;20054;-75
2021/03/24 07:39:35;;;;;;;28.50;15.10;;;;;;;11.18;51.67;100825.13;4968019;28;20051;-74
2021/03/24 07:42:28;;;;;;;29.60;15.57;;;;;;;11.21;51.33;100830.25;4969812;28;20134;-75
2021/03/24 07:45:13;;;;;;;23.38;14.32;;;;;;;11.19;51.49;100837.31;4969778;28;20054;-75
2021/03/24 07:48:08;;;;;;;40.33;18.13;;;;;;;11.24;51.11;100832.81;4972828;28;20134;-76
2021/03/24 07:50:39;;;;;;;41.17;20.60;;;;;;;11.34;50.92;100830.75;4967135;28;20070;-77
2021/03/24 07:53:20;;;;;;;;;;;;;;;11.60;50.70;100838.63;4971803;28;20061;-78
2021/03/24 07:55:56;;;;;;;30.10;15.75;;;;;;;11.49;50.41;100838.13;4965774;28;19926;-75
2021/03/24 07:58:55;;;;;;;26.17;13.10;;;;;;;11.50;50.47;100836.38;4970963;28;20162;-75
2021/03/24 08:01:29;;;;;;;25.35;12.90;;;;;;;11.59;50.15;100836.03;4968686;28;20129;-75
2021/03/24 08:04:06;;;;;;;21.58;13.02;;;;;;;11.57;49.99;100840.50;4971739;28;20043;-74
2021/03/24 08:06:50;;;;;;;17.55;11.18;;;;;;;11.68;49.92;100838.38;4970507;28;20086;-76
2021/03/24 08:09:29;;;;;;;21.77;12.35;;;;;;;11.90;49.31;100839.41;4973325;28;20055;-75
2021/03/24 08:12:13;;;;;;;20.67;12.40;;;;;;;12.14;48.82;100836.81;4973784;28;20046;-75
2021/03/24 08:15:02;;;;;;;21.02;12.57;;;;;;;12.21;48.72;100831.28;4970980;28;20117;-75
2021/03/24 08:17:39;;;;;;;23.98;13.43;;;;;;;12.26;48.42;100846.88;4973875;28;20400;-75
2021/03/24 08:20:29;;;;;;;20.98;12.10;;;;;;;12.24;48.47;100840.81;4966459;28;20158;-76
2021/03/24 08:23:19;;;;;;;18.67;12.38;;;;;;;12.30;48.25;100834.50;4975553;28;20082;-76
2021/03/24 08:26:00;;;;;;;27.48;14.32;;;;;;;12.56;47.72;100839.66;4971118;28;20145;-76
2021/03/24 08:28:46;;;;;;;21.38;13.18;;;;;;;12.68;47.54;100846.22;4971952;28;20121;-75
2021/03/24 08:31:27;;;;;;;19.38;12.38;;;;;;;12.75;47.28;100847.72;4970358;28;20047;-76
2021/03/24 08:34:12;;;;;;;20.63;13.27;;;;;;;12.82;47.23;100843.94;4971912;28;20208;-76
2021/03/24 08:36:54;;;;;;;19.80;12.00;;;;;;;12.95;46.78;100850.47;4967706;28;20089;-76
2021/03/24 08:40:03;;;;;;;24.27;12.93;;;;;;;13.08;46.48;100845.56;4971972;28;20059;-75
2021/03/24 08:43:03;;;;;;;17.48;12.00;;;;;;;13.06;46.35;100842.13;4916179;28;20135;-75
2021/03/24 08:45:34;;;;;;;22.40;12.68;;;;;;;12.88;46.26;100843.69;4971566;28;20059;-76
2021/03/24 08:48:06;;;;;;;24.33;13.07;;;;;;;12.77;46.58;100838.00;4968708;28;20142;-75
2021/03/24 08:50:39;;;;;;;22.73;13.35;;;;;;;12.52;47.21;100841.56;4972634;28;20050;-75
2021/03/24 08:53:12;;;;;;;30.50;15.43;;;;;;;12.34;47.54;100842.22;4970613;28;20081;-75
2021/03/24 08:55:52;;;;;;;25.83;14.15;;;;;;;12.17;47.88;100841.97;4971730;28;20490;-75
2021/03/24 08:58:23;;;;;;;33.22;15.98;;;;;;;12.25;47.53;100829.41;4970876;28;20142;-75
2021/03/24 09:01:13;;;;;;;;;;;;;;;12.47;47.21;100838.22;4970029;28;20058;-76
2021/03/24 09:04:04;;;;;;;21.13;12.85;;;;;;;12.33;47.12;100840.50;4959995;28;20013;-75
2021/03/24 09:06:40;;;;;;;23.25;12.82;;;;;;;12.21;47.12;100838.31;4966511;28;20047;-74
2021/03/24 09:09:28;;;;;;;22.83;11.73;;;;;;;12.17;47.01;100839.34;4974478;28;20105;-73
2021/03/24 09:12:01;;;;;;;21.30;10.82;;;;;;;12.15;47.43;100838.53;4967214;28;20077;-73
2021/03/24 09:14:38;;;;;;;19.50;12.13;;;;;;;12.25;46.70;100839.06;4981878;28;20106;-73
2021/03/24 09:17:26;;;;;;;20.15;10.55;;;;;;;12.41;45.98;100838.44;4985689;28;20054;-74
2021/03/24 09:20:46;;;;;;;18.95;11.05;;;;;;;12.66;45.59;100835.75;4972882;28;20053;-73
2021/03/24 09:24:00;;;;;;;19.02;11.02;;;;;;;12.96;44.97;100839.03;4971680;28;20055;-74
2021/03/24 09:26:56;;;;;;;22.02;11.52;;;;;;;13.22;44.46;100832.75;4971817;28;20138;-73
2021/03/24 09:29:40;;;;;;;19.73;11.25;;;;;;;13.55;43.71;100841.06;4970418;28;20126;-73
2021/03/24 09:32:37;;;;;;;30.40;16.20;;;;;;;13.94;43.18;100835.03;4970958;28;20056;-73
2021/03/24 09:35:26;;;;;;;50.85;25.58;;;;;;;14.04;42.77;100834.59;4911258;29;20056;-73
2021/03/24 09:38:00;;;;;;;34.75;18.92;;;;;;;14.09;42.56;100842.28;4959991;28;20053;-75
2021/03/24 09:40:34;;;;;;;19.52;11.80;;;;;;;14.12;42.24;100830.75;4970707;28;20079;-73
2021/03/24 09:43:06;;;;;;;16.70;9.60;;;;;;;14.12;42.09;100823.69;4970428;28;20054;-74
2021/03/24 09:45:34;;;;;;;;;;;;;;;14.23;42.52;100828.50;4969662;28;20443;-72
2021/03/24 09:48:06;;;;;;;11.52;6.82;;;;;;;14.07;42.44;100835.38;4971793;28;19926;-73
2021/03/24 09:50:37;;;;;;;11.75;6.97;;;;;;;14.12;41.95;100831.59;4967361;28;20141;-74
2021/03/24 09:53:09;;;;;;;15.07;7.65;;;;;;;14.28;41.60;100822.09;4972694;28;20101;-75
2021/03/24 09:55:39;;;;;;;14.57;7.07;;;;;;;14.52;40.87;100828.06;4967737;28;20142;-73
2021/03/24 09:58:31;;;;;;;11.98;7.50;;;;;;;14.49;40.90;100820.31;4974562;28;20058;-73
2021/03/24 10:01:15;;;;;;;15.23;7.25;;;;;;;14.56;40.84;100827.00;4970479;28;20047;-72
2021/03/24 10:03:48;;;;;;;10.35;5.80;;;;;;;14.77;39.90;100821.66;4972219;28;20495;-74
2021/03/24 10:06:24;;;;;;;10.25;6.97;;;;;;;14.94;39.98;100812.03;4975537;28;20047;-74
2021/03/24 10:08:59;;;;;;;12.18;6.28;;;;;;;15.39;38.90;100817.81;4972723;28;20081;-73
2021/03/24 10:11:29;;;;;;;13.48;7.97;;;;;;;15.95;38.27;100809.72;4970299;28;20046;-74
2021/03/24 10:14:00;;;;;;;16.50;8.50;;;;;;;16.52;37.09;100814.66;4972126;28;20053;-74
2021/03/24 10:16:31;;;;;;;17.92;7.85;;;;;;;16.84;36.46;100812.91;4971294;28;20415;-76
2021/03/24 10:19:02;;;;;;;12.25;8.00;;;;;;;16.89;36.41;100810.88;4970076;28;20109;-73
2021/03/24 10:21:38;;;;;;;12.93;7.80;;;;;;;16.62;36.41;100807.91;4971930;28;20499;-76
2021/03/24 10:24:14;;;;;;;14.90;8.00;;;;;;;15.93;37.26;100808.94;4968546;28;20055;-75
2021/03/24 10:26:50;;;;;;;12.48;7.68;;;;;;;15.41;37.93;100800.97;4969994;28;20129;-75
2021/03/24 10:29:20;;;;;;;13.43;7.40;;;;;;;15.20;38.20;100802.00;4972229;28;20051;-76
2021/03/24 10:31:51;;;;;;;10.63;7.20;;;;;;;14.89;38.61;100806.13;4973185;28;20066;-76
2021/03/24 10:34:22;;;;;;;10.82;7.68;;;;;;;14.59;38.63;100802.28;4967948;28;20214;-76
2021/03/24 10:36:56;;;;;;;13.88;8.57;;;;;;;14.34;39.50;100800.72;4972914;28;20062;-77
2021/03/24 10:39:27;;;;;;;19.08;10.38;;;;;;;14.48;39.13;100799.28;4975078;28;20145;-75
2021/03/24 10:42:03;;;;;;;19.50;10.38;;;;;;;14.66;38.85;100802.84;4968568;28;20780;-74
2021/03/24 10:44:47;;;;;;;16.50;9.48;;;;;;;14.70;38.58;100797.34;4965817;28;20062;-75
2021/03/24 10:47:22;;;;;;;16.80;8.93;;;;;;;14.68;38.38;100793.94;4972154;28;20050;-75
2021/03/24 10:50:04;;;;;;;15.18;11.07;;;;;;;14.75;38.24;100795.34;4972211;28;20169;-75
2021/03/24 10:52:39;;;;;;;15.85;9.68;;;;;;;14.82;38.27;100796.78;4970065;28;20058;-78
2021/03/24 10:55:14;;;;;;;14.45;9.98;;;;;;;14.83;38.08;100792.38;4970377;28;20046;-75
2021/03/24 10:57:55;;;;;;;15.45;9.10;;;;;;;14.89;37.95;100789.44;4968185;28;20050;-75
2021/03/24 11:00:26;;;;;;;36.00;11.05;;;;;;;15.03;37.72;100778.22;4971537;28;20146;-75
2021/03/24 11:03:12;;;;;;;14.82;10.25;;;;;;;15.03;38.12;100783.50;4969422;28;20083;-75
2021/03/24 11:05:41;;;;;;;12.55;8.65;;;;;;;15.07;37.56;100780.63;4964931;28;20491;-75
2021/03/24 11:08:28;;;;;;;13.73;8.95;;;;;;;14.86;37.73;100785.16;4970198;28;20193;-76
2021/03/24 11:10:58;;;;;;;13.95;9.35;;;;;;;14.74;38.02;100783.09;4965648;28;20053;-76
2021/03/24 11:13:31;;;;;;;24.70;11.37;;;;;;;14.62;38.44;100778.41;4972463;28;20079;-76
2021/03/24 11:16:19;;;;;;;19.15;11.15;;;;;;;14.52;38.81;100779.72;4965219;28;20296;-76
2021/03/24 11:18:50;;;;;;;22.00;10.48;;;;;;;14.60;38.43;100780.25;4968883;28;20051;-77
2021/03/24 11:21:39;;;;;;;13.90;9.98;;;;;;;14.71;38.17;100783.22;4969325;28;20632;-78
2021/03/24 11:24:14;;;;;;;16.23;8.60;;;;;;;14.91;37.70;100772.59;4967922;28;20402;-75
2021/03/24 11:27:01;;;;;;;14.32;9.15;;;;;;;15.15;37.64;100767.03;4969023;28;20043;-79
2021/03/24 11:33:18;;;;;;;23.15;12.80;;;;;;;15.71;36.54;100766.88;4911210;28;20046;-79
2021/03/24 11:36:02;;;;;;;19.95;12.48;;;;;;;15.88;36.37;100765.16;4953425;28;20065;-77
2021/03/24 11:38:40;;;;;;;16.63;9.68;;;;;;;15.61;36.35;100770.06;4972783;28;20063;-76
2021/03/24 11:41:09;;;;;;;14.90;9.18;;;;;;;15.25;36.57;100763.03;4964840;28;20050;-77
2021/03/24 11:43:40;;;;;;;19.08;11.50;;;;;;;15.00;37.43;100757.25;4969317;28;20086;-78
2021/03/24 11:46:18;;;;;;;17.20;11.57;;;;;;;14.76;37.63;100761.91;4970067;28;20431;-78
2021/03/24 11:49:17;;;;;;;22.27;11.50;;;;;;;14.87;37.54;100755.19;4975975;28;20051;-76
2021/03/24 11:52:00;;;;;;;20.17;12.52;;;;;;;15.08;37.24;100755.94;4972453;28;20043;-76
2021/03/24 11:54:35;;;;;;;18.77;11.18;;;;;;;15.20;36.87;100759.75;4968573;28;20105;-78
2021/03/24 11:57:29;;;;;;;17.88;10.82;;;;;;;15.21;37.11;100766.75;4973049;28;20955;-76
2021/03/24 12:00:20;;;;;;;17.00;9.18;;;;;;;15.08;36.93;100755.94;4971923;28;20065;-73
2021/03/24 12:03:10;;;;;;;17.48;10.02;;;;;;;15.17;36.92;100757.25;4964966;28;20047;-81